sensor_id;sensor_type;location;lat;lon;timestamp;pressure;altitude;pressure_sealevel;temperature
73734;BMP280;62039;50.000;9.064;2022-08-18T00:01:04;99842.97;;;22.27
73734;BMP280;62039;50.000;9.064;2022-08-18T00:03:31;99836.53;;;22.23
73734;BMP280;62039;50.000;9.064;2022-08-18T00:06:18;99833.31;;;22.21
73734;BMP280;62039;50.000;9.064;2022-08-18T00:08:45;99831.72;;;22.20
73734;BMP280;62039;50.000;9.064;2022-08-18T00:11:13;99827.19;;;22.21
73734;BMP280;62039;50.000;9.064;2022-08-18T00:13:40;99838.31;;;22.18
73734;BMP280;62039;50.000;9.064;2022-08-18T00:16:07;99836.75;;;22.17
73734;BMP280;62039;50.000;9.064;2022-08-18T00:18:33;99835.13;;;22.16
73734;BMP280;62039;50.000;9.064;2022-08-18T00:21:00;99833.50;;;22.15
73734;BMP280;62039;50.000;9.064;2022-08-18T00:23:26;99838.03;;;22.14
73734;BMP280;62039;50.000;9.064;2022-08-18T00:25:54;99835.59;;;22.13
73734;BMP280;62039;50.000;9.064;2022-08-18T00:28:22;99841.72;;;22.13
73734;BMP280;62039;50.000;9.064;2022-08-18T00:30:49;99843.28;;;22.09
73734;BMP280;62039;50.000;9.064;2022-08-18T00:33:20;99854.97;;;22.08
73734;BMP280;62039;50.000;9.064;2022-08-18T00:35:47;99856.03;;;22.07
73734;BMP280;62039;50.000;9.064;2022-08-18T00:38:13;99866.91;;;22.06
73734;BMP280;62039;50.000;9.064;2022-08-18T00:40:52;99863.69;;;22.04
73734;BMP280;62039;50.000;9.064;2022-08-18T00:43:25;99873.53;;;22.03
73734;BMP280;62039;50.000;9.064;2022-08-18T00:45:53;99879.09;;;22.02
73734;BMP280;62039;50.000;9.064;2022-08-18T00:48:19;99882.78;;;22.01
73734;BMP280;62039;50.000;9.064;2022-08-18T00:50:52;99892.88;;;21.99
73734;BMP280;62039;50.000;9.064;2022-08-18T00:53:24;99896.84;;;21.96
73734;BMP280;62039;50.000;9.064;2022-08-18T00:55:54;99906.91;;;21.94
73734;BMP280;62039;50.000;9.064;2022-08-18T00:58:27;99905.75;;;21.90
73734;BMP280;62039;50.000;9.064;2022-08-18T01:00:54;99908.31;;;21.85
73734;BMP280;62039;50.000;9.064;2022-08-18T01:03:22;99910.44;;;21.83
73734;BMP280;62039;50.000;9.064;2022-08-18T01:05:54;99911.72;;;21.80
73734;BMP280;62039;50.000;9.064;2022-08-18T01:08:21;99917.78;;;21.76
73734;BMP280;62039;50.000;9.064;2022-08-18T01:10:55;99913.97;;;21.72
73734;BMP280;62039;50.000;9.064;2022-08-18T01:13:26;99921.41;;;21.70
73734;BMP280;62039;50.000;9.064;2022-08-18T01:15:54;99920.28;;;21.66
73734;BMP280;62039;50.000;9.064;2022-08-18T01:18:21;99915.47;;;21.63
73734;BMP280;62039;50.000;9.064;2022-08-18T01:20:53;99912.25;;;21.61
73734;BMP280;62039;50.000;9.064;2022-08-18T01:23:24;99906.84;;;21.56
73734;BMP280;62039;50.000;9.064;2022-08-18T01:25:51;99908.94;;;21.53
73734;BMP280;62039;50.000;9.064;2022-08-18T01:28:18;99901.69;;;21.49
73734;BMP280;62039;50.000;9.064;2022-08-18T01:30:47;99895.59;;;21.48
73734;BMP280;62039;50.000;9.064;2022-08-18T01:33:15;99901.94;;;21.47
73734;BMP280;62039;50.000;9.064;2022-08-18T01:35:43;99910.94;;;21.46
73734;BMP280;62039;50.000;9.064;2022-08-18T01:38:11;99898.72;;;21.45
73734;BMP280;62039;50.000;9.064;2022-08-18T01:40:38;99893.41;;;21.45
73734;BMP280;62039;50.000;9.064;2022-08-18T01:43:25;99898.94;;;21.44
73734;BMP280;62039;50.000;9.064;2022-08-18T01:45:52;99900.00;;;21.43
73734;BMP280;62039;50.000;9.064;2022-08-18T01:48:18;99906.09;;;21.43
73734;BMP280;62039;50.000;9.064;2022-08-18T01:50:45;99907.19;;;21.42
73734;BMP280;62039;50.000;9.064;2022-08-18T01:53:12;99893.91;;;21.42
73734;BMP280;62039;50.000;9.064;2022-08-18T01:55:40;99885.94;;;21.42
73734;BMP280;62039;50.000;9.064;2022-08-18T01:58:09;99894.69;;;21.43
73734;BMP280;62039;50.000;9.064;2022-08-18T02:00:36;99899.22;;;21.42
73734;BMP280;62039;50.000;9.064;2022-08-18T02:03:04;99903.72;;;21.42
73734;BMP280;62039;50.000;9.064;2022-08-18T02:05:40;99903.38;;;21.38
73734;BMP280;62039;50.000;9.064;2022-08-18T02:08:07;99903.28;;;21.33
73734;BMP280;62039;50.000;9.064;2022-08-18T02:10:34;99899.22;;;21.31
73734;BMP280;62039;50.000;9.064;2022-08-18T02:13:03;99898.94;;;21.27
73734;BMP280;62039;50.000;9.064;2022-08-18T02:15:30;99903.66;;;21.25
73734;BMP280;62039;50.000;9.064;2022-08-18T02:17:57;99904.97;;;21.23
73734;BMP280;62039;50.000;9.064;2022-08-18T02:20:23;99908.91;;;21.20
73734;BMP280;62039;50.000;9.064;2022-08-18T02:22:50;99901.91;;;21.14
73734;BMP280;62039;50.000;9.064;2022-08-18T02:25:17;99906.41;;;21.13
73734;BMP280;62039;50.000;9.064;2022-08-18T02:27:44;99904.78;;;21.12
73734;BMP280;62039;50.000;9.064;2022-08-18T02:30:15;99906.88;;;21.10
73734;BMP280;62039;50.000;9.064;2022-08-18T02:32:42;99908.72;;;21.10
73734;BMP280;62039;50.000;9.064;2022-08-18T02:35:09;99915.91;;;21.09
73734;BMP280;62039;50.000;9.064;2022-08-18T02:37:38;99910.00;;;21.07
73734;BMP280;62039;50.000;9.064;2022-08-18T02:40:09;99909.44;;;21.05
73734;BMP280;62039;50.000;9.064;2022-08-18T02:42:40;99903.31;;;21.05
73734;BMP280;62039;50.000;9.064;2022-08-18T02:45:08;99906.56;;;21.07
73734;BMP280;62039;50.000;9.064;2022-08-18T02:47:36;99905.50;;;21.08
73734;BMP280;62039;50.000;9.064;2022-08-18T02:50:03;99906.88;;;21.10
73734;BMP280;62039;50.000;9.064;2022-08-18T02:52:30;99906.63;;;21.12
73734;BMP280;62039;50.000;9.064;2022-08-18T02:54:57;99901.91;;;21.14
73734;BMP280;62039;50.000;9.064;2022-08-18T02:57:23;99907.78;;;21.16
73734;BMP280;62039;50.000;9.064;2022-08-18T02:59:50;99901.41;;;21.17
73734;BMP280;62039;50.000;9.064;2022-08-18T03:02:17;99903.81;;;21.19
73734;BMP280;62039;50.000;9.064;2022-08-18T03:04:45;99896.44;;;21.21
73734;BMP280;62039;50.000;9.064;2022-08-18T03:07:12;99897.22;;;21.21
73734;BMP280;62039;50.000;9.064;2022-08-18T03:09:39;99898.84;;;21.22
73734;BMP280;62039;50.000;9.064;2022-08-18T03:12:07;99903.09;;;21.23
73734;BMP280;62039;50.000;9.064;2022-08-18T03:14:34;99897.53;;;21.25
73734;BMP280;62039;50.000;9.064;2022-08-18T03:17:03;99904.47;;;21.26
73734;BMP280;62039;50.000;9.064;2022-08-18T03:19:30;99895.69;;;21.25
73734;BMP280;62039;50.000;9.064;2022-08-18T03:22:01;99890.38;;;21.25
73734;BMP280;62039;50.000;9.064;2022-08-18T03:24:30;99891.19;;;21.26
73734;BMP280;62039;50.000;9.064;2022-08-18T03:26:58;99890.38;;;21.25
73734;BMP280;62039;50.000;9.064;2022-08-18T03:29:25;99882.41;;;21.25
73734;BMP280;62039;50.000;9.064;2022-08-18T03:31:57;99887.72;;;21.25
73734;BMP280;62039;50.000;9.064;2022-08-18T03:34:24;99877.91;;;21.26
73734;BMP280;62039;50.000;9.064;2022-08-18T03:36:51;99878.72;;;21.26
73734;BMP280;62039;50.000;9.064;2022-08-18T03:39:19;99886.69;;;21.26
73734;BMP280;62039;50.000;9.064;2022-08-18T03:41:46;99882.41;;;21.25
73734;BMP280;62039;50.000;9.064;2022-08-18T03:44:28;99888.53;;;21.26
73734;BMP280;62039;50.000;9.064;2022-08-18T03:46:55;99876.31;;;21.25
73734;BMP280;62039;50.000;9.064;2022-08-18T03:49:21;99882.41;;;21.25
73734;BMP280;62039;50.000;9.064;2022-08-18T03:51:48;99880.81;;;21.24
73734;BMP280;62039;50.000;9.064;2022-08-18T03:54:16;99880.81;;;21.24
73734;BMP280;62039;50.000;9.064;2022-08-18T03:56:45;99886.13;;;21.24
73734;BMP280;62039;50.000;9.064;2022-08-18T03:59:14;99883.72;;;21.23
73734;BMP280;62039;50.000;9.064;2022-08-18T04:01:42;99877.59;;;21.22
73734;BMP280;62039;50.000;9.064;2022-08-18T04:04:11;99882.09;;;21.22
73734;BMP280;62039;50.000;9.064;2022-08-18T04:06:41;99874.38;;;21.20
73734;BMP280;62039;50.000;9.064;2022-08-18T04:09:10;99875.19;;;21.21
73734;BMP280;62039;50.000;9.064;2022-08-18T04:11:38;99885.00;;;21.20
73734;BMP280;62039;50.000;9.064;2022-08-18T04:14:06;99883.38;;;21.19
73734;BMP280;62039;50.000;9.064;2022-08-18T04:16:33;99881.75;;;21.18
73734;BMP280;62039;50.000;9.064;2022-08-18T04:19:00;99890.78;;;21.17
73734;BMP280;62039;50.000;9.064;2022-08-18T04:21:27;99883.88;;;21.16
73734;BMP280;62039;50.000;9.064;2022-08-18T04:23:53;99886.53;;;21.16
73734;BMP280;62039;50.000;9.064;2022-08-18T04:26:20;99898.19;;;21.15
73734;BMP280;62039;50.000;9.064;2022-08-18T04:28:46;99888.63;;;21.14
73734;BMP280;62039;50.000;9.064;2022-08-18T04:31:14;99886.78;;;21.14
73734;BMP280;62039;50.000;9.064;2022-08-18T04:33:41;99892.31;;;21.13
73734;BMP280;62039;50.000;9.064;2022-08-18T04:36:10;99893.13;;;21.13
73734;BMP280;62039;50.000;9.064;2022-08-18T04:38:37;99892.31;;;21.13
73734;BMP280;62039;50.000;9.064;2022-08-18T04:41:04;99901.31;;;21.12
73734;BMP280;62039;50.000;9.064;2022-08-18T04:43:32;99911.13;;;21.11
73734;BMP280;62039;50.000;9.064;2022-08-18T04:45:59;99921.22;;;21.09
73734;BMP280;62039;50.000;9.064;2022-08-18T04:48:27;99919.59;;;21.08
73734;BMP280;62039;50.000;9.064;2022-08-18T04:50:54;99913.47;;;21.08
73734;BMP280;62039;50.000;9.064;2022-08-18T04:53:20;99917.97;;;21.07
73734;BMP280;62039;50.000;9.064;2022-08-18T04:55:48;99906.78;;;21.05
73734;BMP280;62039;50.000;9.064;2022-08-18T04:58:14;99918.22;;;21.06
73734;BMP280;62039;50.000;9.064;2022-08-18T05:00:41;99920.88;;;21.06
73734;BMP280;62039;50.000;9.064;2022-08-18T05:03:08;99920.28;;;21.04
73734;BMP280;62039;50.000;9.064;2022-08-18T05:05:36;99929.88;;;21.05
73734;BMP280;62039;50.000;9.064;2022-08-18T05:08:03;99930.91;;;21.04
73734;BMP280;62039;50.000;9.064;2022-08-18T05:10:31;99935.69;;;21.02
73734;BMP280;62039;50.000;9.064;2022-08-18T05:12:57;99936.47;;;21.02
73734;BMP280;62039;50.000;9.064;2022-08-18T05:15:24;99940.41;;;21.00
73734;BMP280;62039;50.000;9.064;2022-08-18T05:17:51;99933.47;;;20.99
73734;BMP280;62039;50.000;9.064;2022-08-18T05:20:19;99926.56;;;20.98
73734;BMP280;62039;50.000;9.064;2022-08-18T05:22:48;99924.47;;;21.00
73734;BMP280;62039;50.000;9.064;2022-08-18T05:25:14;99923.66;;;20.99
73734;BMP280;62039;50.000;9.064;2022-08-18T05:27:41;99927.13;;;21.00
73734;BMP280;62039;50.000;9.064;2022-08-18T05:30:09;99921.81;;;21.00
73734;BMP280;62039;50.000;9.064;2022-08-18T05:32:38;99917.31;;;21.00
73734;BMP280;62039;50.000;9.064;2022-08-18T05:35:19;99923.66;;;20.99
73734;BMP280;62039;50.000;9.064;2022-08-18T05:38:04;99919.97;;;21.00
73734;BMP280;62039;50.000;9.064;2022-08-18T05:40:36;99918.59;;;20.98
73734;BMP280;62039;50.000;9.064;2022-08-18T05:43:03;99911.19;;;21.00
73734;BMP280;62039;50.000;9.064;2022-08-18T05:45:32;99909.59;;;20.99
73734;BMP280;62039;50.000;9.064;2022-08-18T05:48:00;99909.00;;;20.97
73734;BMP280;62039;50.000;9.064;2022-08-18T05:50:28;99910.88;;;20.96
73734;BMP280;62039;50.000;9.064;2022-08-18T05:53:03;99921.75;;;20.95
73734;BMP280;62039;50.000;9.064;2022-08-18T05:55:43;99921.97;;;20.93
73734;BMP280;62039;50.000;9.064;2022-08-18T05:58:16;99924.63;;;20.93
73734;BMP280;62039;50.000;9.064;2022-08-18T06:00:47;99917.69;;;20.92
73734;BMP280;62039;50.000;9.064;2022-08-18T06:03:20;99922.19;;;20.92
73734;BMP280;62039;50.000;9.064;2022-08-18T06:05:51;99914.47;;;20.90
73734;BMP280;62039;50.000;9.064;2022-08-18T06:08:21;99915.53;;;20.89
73734;BMP280;62039;50.000;9.064;2022-08-18T06:10:50;99914.72;;;20.89
73734;BMP280;62039;50.000;9.064;2022-08-18T06:13:18;99922.69;;;20.89
73734;BMP280;62039;50.000;9.064;2022-08-18T06:15:50;99913.94;;;20.88
73734;BMP280;62039;50.000;9.064;2022-08-18T06:18:40;99907.22;;;20.86
73734;BMP280;62039;50.000;9.064;2022-08-18T06:21:27;99901.13;;;20.85
73734;BMP280;62039;50.000;9.064;2022-08-18T06:24:14;99911.72;;;20.85
73734;BMP280;62039;50.000;9.064;2022-08-18T06:26:47;99911.97;;;20.84
73734;BMP280;62039;50.000;9.064;2022-08-18T06:29:25;99916.47;;;20.83
73734;BMP280;62039;50.000;9.064;2022-08-18T06:32:02;99912.22;;;20.82
73734;BMP280;62039;50.000;9.064;2022-08-18T06:34:40;99917.53;;;20.82
73734;BMP280;62039;50.000;9.064;2022-08-18T06:37:15;99920.19;;;20.82
73734;BMP280;62039;50.000;9.064;2022-08-18T06:39:46;99918.56;;;20.81
73734;BMP280;62039;50.000;9.064;2022-08-18T06:42:16;99919.38;;;20.82
73734;BMP280;62039;50.000;9.064;2022-08-18T06:44:46;99927.34;;;20.82
73734;BMP280;62039;50.000;9.064;2022-08-18T06:47:18;99930.81;;;20.82
73734;BMP280;62039;50.000;9.064;2022-08-18T06:49:49;99924.69;;;20.82
73734;BMP280;62039;50.000;9.064;2022-08-18T06:52:25;99930.00;;;20.82
73734;BMP280;62039;50.000;9.064;2022-08-18T06:54:56;99935.31;;;20.82
73734;BMP280;62039;50.000;9.064;2022-08-18T06:57:28;99935.31;;;20.82
73734;BMP280;62039;50.000;9.064;2022-08-18T06:59:57;99934.50;;;20.81
73734;BMP280;62039;50.000;9.064;2022-08-18T07:02:47;99937.16;;;20.81
73734;BMP280;62039;50.000;9.064;2022-08-18T07:05:19;99937.38;;;20.80
73734;BMP280;62039;50.000;9.064;2022-08-18T07:08:10;99949.25;;;20.77
73734;BMP280;62039;50.000;9.064;2022-08-18T07:10:42;99949.53;;;20.75
73734;BMP280;62039;50.000;9.064;2022-08-18T07:13:21;99950.75;;;20.73
73734;BMP280;62039;50.000;9.064;2022-08-18T07:15:48;99942.44;;;20.69
73734;BMP280;62039;50.000;9.064;2022-08-18T07:18:22;99946.16;;;20.68
73734;BMP280;62039;50.000;9.064;2022-08-18T07:20:51;99948.47;;;20.65
73734;BMP280;62039;50.000;9.064;2022-08-18T07:23:23;99952.16;;;20.64
73734;BMP280;62039;50.000;9.064;2022-08-18T07:26:04;99963.00;;;20.62
73734;BMP280;62039;50.000;9.064;2022-08-18T07:28:33;99957.69;;;20.62
73734;BMP280;62039;50.000;9.064;2022-08-18T07:31:11;99951.34;;;20.63
73734;BMP280;62039;50.000;9.064;2022-08-18T07:33:47;99959.31;;;20.63
73734;BMP280;62039;50.000;9.064;2022-08-18T07:36:16;99958.28;;;20.64
73734;BMP280;62039;50.000;9.064;2022-08-18T07:38:47;99964.16;;;20.66
73734;BMP280;62039;50.000;9.064;2022-08-18T07:41:18;99975.59;;;20.67
73734;BMP280;62039;50.000;9.064;2022-08-18T07:43:56;99981.69;;;20.67
73734;BMP280;62039;50.000;9.064;2022-08-18T07:46:29;99988.63;;;20.68
73734;BMP280;62039;50.000;9.064;2022-08-18T07:48:57;99998.44;;;20.68
73734;BMP280;62039;50.000;9.064;2022-08-18T07:51:29;99997.13;;;20.70
73734;BMP280;62039;50.000;9.064;2022-08-18T07:54:06;99997.13;;;20.70
73734;BMP280;62039;50.000;9.064;2022-08-18T07:56:56;99995.28;;;20.71
73734;BMP280;62039;50.000;9.064;2022-08-18T07:59:28;100009.38;;;20.71
73734;BMP280;62039;50.000;9.064;2022-08-18T08:02:12;100010.19;;;20.72
73734;BMP280;62039;50.000;9.064;2022-08-18T08:04:47;100016.75;;;20.69
73734;BMP280;62039;50.000;9.064;2022-08-18T08:07:20;100025.78;;;20.68
73734;BMP280;62039;50.000;9.064;2022-08-18T08:10:15;100026.59;;;20.69
73734;BMP280;62039;50.000;9.064;2022-08-18T08:12:50;100033.72;;;20.68
73734;BMP280;62039;50.000;9.064;2022-08-18T08:15:41;100031.09;;;20.68
73734;BMP280;62039;50.000;9.064;2022-08-18T08:18:14;100035.56;;;20.68
73734;BMP280;62039;50.000;9.064;2022-08-18T08:20:47;100042.50;;;20.69
73734;BMP280;62039;50.000;9.064;2022-08-18T08:23:21;100036.38;;;20.68
73734;BMP280;62039;50.000;9.064;2022-08-18T08:25:58;100039.03;;;20.68
73734;BMP280;62039;50.000;9.064;2022-08-18T08:28:37;100045.38;;;20.67
73734;BMP280;62039;50.000;9.064;2022-08-18T08:31:09;100055.19;;;20.67
73734;BMP280;62039;50.000;9.064;2022-08-18T08:34:04;100049.06;;;20.66
73734;BMP280;62039;50.000;9.064;2022-08-18T08:36:35;100051.72;;;20.66
73734;BMP280;62039;50.000;9.064;2022-08-18T08:39:06;100051.72;;;20.66
73734;BMP280;62039;50.000;9.064;2022-08-18T08:41:40;100050.47;;;20.69
73734;BMP280;62039;50.000;9.064;2022-08-18T08:44:12;100043.06;;;20.71
73734;BMP280;62039;50.000;9.064;2022-08-18T08:46:44;100037.53;;;20.72
73734;BMP280;62039;50.000;9.064;2022-08-18T08:49:24;100034.63;;;20.74
73734;BMP280;62039;50.000;9.064;2022-08-18T08:51:55;100037.88;;;20.76
73734;BMP280;62039;50.000;9.064;2022-08-18T08:54:25;100028.88;;;20.77
73734;BMP280;62039;50.000;9.064;2022-08-18T08:56:54;100034.53;;;20.81
73734;BMP280;62039;50.000;9.064;2022-08-18T08:59:23;100026.09;;;20.84
73734;BMP280;62039;50.000;9.064;2022-08-18T09:01:58;100024.00;;;20.86
73734;BMP280;62039;50.000;9.064;2022-08-18T09:04:39;100026.22;;;20.89
73734;BMP280;62039;50.000;9.064;2022-08-18T09:07:42;100020.66;;;20.90
73734;BMP280;62039;50.000;9.064;2022-08-18T09:10:37;100018.34;;;20.94
73734;BMP280;62039;50.000;9.064;2022-08-18T09:13:24;100023.75;;;20.99
73734;BMP280;62039;50.000;9.064;2022-08-18T09:16:07;100022.22;;;21.03
73734;BMP280;62039;50.000;9.064;2022-08-18T09:18:50;100016.44;;;21.06
73734;BMP280;62039;50.000;9.064;2022-08-18T09:21:27;100014.91;;;21.10
73734;BMP280;62039;50.000;9.064;2022-08-18T09:24:05;100011.50;;;21.09
73734;BMP280;62039;50.000;9.064;2022-08-18T09:26:39;100009.06;;;21.08
73734;BMP280;62039;50.000;9.064;2022-08-18T09:29:16;100011.50;;;21.09
73734;BMP280;62039;50.000;9.064;2022-08-18T09:31:45;100019.78;;;21.13
73734;BMP280;62039;50.000;9.064;2022-08-18T09:34:32;100015.84;;;21.15
73734;BMP280;62039;50.000;9.064;2022-08-18T09:37:09;100003.69;;;21.20
73734;BMP280;62039;50.000;9.064;2022-08-18T09:39:42;100010.94;;;21.24
73734;BMP280;62039;50.000;9.064;2022-08-18T09:42:25;100012.63;;;21.30
73734;BMP280;62039;50.000;9.064;2022-08-18T09:44:59;100010.13;;;21.35
73734;BMP280;62039;50.000;9.064;2022-08-18T09:48:06;100016.00;;;21.37
73734;BMP280;62039;50.000;9.064;2022-08-18T09:50:57;100019.78;;;21.41
73734;BMP280;62039;50.000;9.064;2022-08-18T09:53:36;100019.31;;;21.44
73734;BMP280;62039;50.000;9.064;2022-08-18T09:56:57;100025.19;;;21.46
73734;BMP280;62039;50.000;9.064;2022-08-18T10:03:12;100033.97;;;21.47
73734;BMP280;62039;50.000;9.064;2022-08-18T10:05:53;100031.41;;;21.52
73734;BMP280;62039;50.000;9.064;2022-08-18T10:08:36;100030.94;;;21.55
73734;BMP280;62039;50.000;9.064;2022-08-18T10:11:23;100031.75;;;21.56
73734;BMP280;62039;50.000;9.064;2022-08-18T10:14:05;100020.06;;;21.57
73734;BMP280;62039;50.000;9.064;2022-08-18T10:16:43;100012.09;;;21.57
73734;BMP280;62039;50.000;9.064;2022-08-18T10:19:40;100011.28;;;21.56
73734;BMP280;62039;50.000;9.064;2022-08-18T10:22:35;100008.88;;;21.54
73734;BMP280;62039;50.000;9.064;2022-08-18T10:25:03;100017.41;;;21.57
73734;BMP280;62039;50.000;9.064;2022-08-18T10:27:52;100018.19;;;21.57
73734;BMP280;62039;50.000;9.064;2022-08-18T10:34:04;100022.72;;;21.57
73734;BMP280;62039;50.000;9.064;2022-08-18T10:36:48;100033.19;;;21.63
73734;BMP280;62039;50.000;9.064;2022-08-18T10:39:18;100030.28;;;21.65
73734;BMP280;62039;50.000;9.064;2022-08-18T10:41:57;100029.81;;;21.68
73734;BMP280;62039;50.000;9.064;2022-08-18T10:44:30;100029.81;;;21.68
73734;BMP280;62039;50.000;9.064;2022-08-18T10:47:00;100039.13;;;21.70
73734;BMP280;62039;50.000;9.064;2022-08-18T10:49:29;100042.38;;;21.72
73734;BMP280;62039;50.000;9.064;2022-08-18T10:52:21;100058.31;;;21.72
73734;BMP280;62039;50.000;9.064;2022-08-18T10:58:08;100052.19;;;21.72
73734;BMP280;62039;50.000;9.064;2022-08-18T11:00:45;100053.00;;;21.72
73734;BMP280;62039;50.000;9.064;2022-08-18T11:03:25;100038.91;;;21.72
73734;BMP280;62039;50.000;9.064;2022-08-18T11:06:18;100039.94;;;21.71
73734;BMP280;62039;50.000;9.064;2022-08-18T11:08:51;100028.03;;;21.73
73734;BMP280;62039;50.000;9.064;2022-08-18T11:11:40;100027.81;;;21.75
73734;BMP280;62039;50.000;9.064;2022-08-18T11:14:45;100020.41;;;21.77
73734;BMP280;62039;50.000;9.064;2022-08-18T11:17:26;100018.06;;;21.80
73734;BMP280;62039;50.000;9.064;2022-08-18T11:19:55;100006.13;;;21.83
73734;BMP280;62039;50.000;9.064;2022-08-18T11:22:22;99997.19;;;21.89
73734;BMP280;62039;50.000;9.064;2022-08-18T11:25:21;99982.97;;;21.95
73734;BMP280;62039;50.000;9.064;2022-08-18T11:27:49;99966.03;;;22.01
73734;BMP280;62039;50.000;9.064;2022-08-18T11:30:40;99937.47;;;22.13
73734;BMP280;62039;50.000;9.064;2022-08-18T11:33:13;99937.34;;;22.25
73734;BMP280;62039;50.000;9.064;2022-08-18T11:35:50;99937.56;;;22.40
73734;BMP280;62039;50.000;9.064;2022-08-18T11:38:18;99928.47;;;22.58
73734;BMP280;62039;50.000;9.064;2022-08-18T11:40:52;99914.84;;;22.76
73734;BMP280;62039;50.000;9.064;2022-08-18T11:43:39;99904.91;;;22.98
73734;BMP280;62039;50.000;9.064;2022-08-18T11:46:15;99902.47;;;23.19
73734;BMP280;62039;50.000;9.064;2022-08-18T11:48:56;99896.25;;;23.40
73734;BMP280;62039;50.000;9.064;2022-08-18T11:51:25;99910.75;;;23.54
73734;BMP280;62039;50.000;9.064;2022-08-18T11:53:54;99904.19;;;23.67
73734;BMP280;62039;50.000;9.064;2022-08-18T11:56:43;99904.56;;;23.80
73734;BMP280;62039;50.000;9.064;2022-08-18T11:59:30;99906.22;;;23.92
73734;BMP280;62039;50.000;9.064;2022-08-18T12:02:17;99903.34;;;24.03
73734;BMP280;62039;50.000;9.064;2022-08-18T12:04:49;99900.25;;;24.16
73734;BMP280;62039;50.000;9.064;2022-08-18T12:07:25;99900.03;;;24.33
73734;BMP280;62039;50.000;9.064;2022-08-18T12:10:13;99900.63;;;24.45
73734;BMP280;62039;50.000;9.064;2022-08-18T12:12:49;99896.91;;;24.61
73734;BMP280;62039;50.000;9.064;2022-08-18T12:15:36;99902.88;;;24.79
73734;BMP280;62039;50.000;9.064;2022-08-18T12:18:13;99888.47;;;24.95
73734;BMP280;62039;50.000;9.064;2022-08-18T12:20:53;99887.13;;;25.08
73734;BMP280;62039;50.000;9.064;2022-08-18T12:23:20;99892.75;;;25.21
73734;BMP280;62039;50.000;9.064;2022-08-18T12:25:47;99901.34;;;25.33
73734;BMP280;62039;50.000;9.064;2022-08-18T12:28:19;99900.78;;;25.47
73734;BMP280;62039;50.000;9.064;2022-08-18T12:30:48;99883.38;;;25.59
73734;BMP280;62039;50.000;9.064;2022-08-18T12:33:22;99876.69;;;25.72
73734;BMP280;62039;50.000;9.064;2022-08-18T12:35:59;99870.25;;;25.83
73734;BMP280;62039;50.000;9.064;2022-08-18T12:38:26;99860.56;;;25.97
73734;BMP280;62039;50.000;9.064;2022-08-18T12:40:53;99874.97;;;26.11
73734;BMP280;62039;50.000;9.064;2022-08-18T12:43:20;99871.19;;;26.23
73734;BMP280;62039;50.000;9.064;2022-08-18T12:45:47;99871.16;;;26.33
73734;BMP280;62039;50.000;9.064;2022-08-18T12:48:14;99865.22;;;26.41
73734;BMP280;62039;50.000;9.064;2022-08-18T12:50:41;99871.56;;;26.50
73734;BMP280;62039;50.000;9.064;2022-08-18T12:53:28;99873.13;;;26.61
73734;BMP280;62039;50.000;9.064;2022-08-18T12:56:19;99870.94;;;26.68
73734;BMP280;62039;50.000;9.064;2022-08-18T12:58:48;99866.09;;;26.70
73734;BMP280;62039;50.000;9.064;2022-08-18T13:01:15;99856.47;;;26.74
73734;BMP280;62039;50.000;9.064;2022-08-18T13:03:43;99852.13;;;26.78
73734;BMP280;62039;50.000;9.064;2022-08-18T13:06:18;99852.63;;;26.85
73734;BMP280;62039;50.000;9.064;2022-08-18T13:08:45;99847.75;;;26.92
73734;BMP280;62039;50.000;9.064;2022-08-18T13:11:15;99844.47;;;27.01
73734;BMP280;62039;50.000;9.064;2022-08-18T13:13:52;99841.75;;;27.06
73734;BMP280;62039;50.000;9.064;2022-08-18T13:16:22;99836.91;;;27.08
73734;BMP280;62039;50.000;9.064;2022-08-18T13:19:05;99821.91;;;27.07
73734;BMP280;62039;50.000;9.064;2022-08-18T13:21:32;99829.41;;;27.05
73734;BMP280;62039;50.000;9.064;2022-08-18T13:24:07;99823.50;;;27.08
73734;BMP280;62039;50.000;9.064;2022-08-18T13:26:38;99823.97;;;27.15
73734;BMP280;62039;50.000;9.064;2022-08-18T13:29:08;99809.97;;;27.23
73734;BMP280;62039;50.000;9.064;2022-08-18T13:31:36;99810.44;;;27.30
73734;BMP280;62039;50.000;9.064;2022-08-18T13:34:03;99808.75;;;27.39
73734;BMP280;62039;50.000;9.064;2022-08-18T13:36:31;99797.91;;;27.49
73734;BMP280;62039;50.000;9.064;2022-08-18T13:39:00;99795.63;;;27.61
73734;BMP280;62039;50.000;9.064;2022-08-18T13:41:27;99795.44;;;27.77
73734;BMP280;62039;50.000;9.064;2022-08-18T13:43:57;99802.31;;;27.88
73734;BMP280;62039;50.000;9.064;2022-08-18T13:46:26;99802.16;;;27.98
73734;BMP280;62039;50.000;9.064;2022-08-18T13:48:56;99803.13;;;28.07
73734;BMP280;62039;50.000;9.064;2022-08-18T13:51:23;99804.88;;;28.17
73734;BMP280;62039;50.000;9.064;2022-08-18T13:53:50;99798.06;;;28.24
73734;BMP280;62039;50.000;9.064;2022-08-18T13:56:36;99802.31;;;28.30
73734;BMP280;62039;50.000;9.064;2022-08-18T13:59:05;99794.16;;;28.35
73734;BMP280;62039;50.000;9.064;2022-08-18T14:01:34;99794.09;;;28.40
73734;BMP280;62039;50.000;9.064;2022-08-18T14:04:18;99790.81;;;28.43
73734;BMP280;62039;50.000;9.064;2022-08-18T14:06:48;99786.44;;;28.47
73734;BMP280;62039;50.000;9.064;2022-08-18T14:09:23;99780.47;;;28.50
73734;BMP280;62039;50.000;9.064;2022-08-18T14:12:04;99776.13;;;28.55
73734;BMP280;62039;50.000;9.064;2022-08-18T14:14:31;99775.53;;;28.58
73734;BMP280;62039;50.000;9.064;2022-08-18T14:17:00;99781.41;;;28.60
73734;BMP280;62039;50.000;9.064;2022-08-18T14:19:27;99774.16;;;28.60
73734;BMP280;62039;50.000;9.064;2022-08-18T14:21:55;99771.47;;;28.60
73734;BMP280;62039;50.000;9.064;2022-08-18T14:24:22;99764.78;;;28.58
73734;BMP280;62039;50.000;9.064;2022-08-18T14:26:50;99760.03;;;28.55
73734;BMP280;62039;50.000;9.064;2022-08-18T14:29:18;99767.56;;;28.52
73734;BMP280;62039;50.000;9.064;2022-08-18T14:32:06;99759.00;;;28.50
73734;BMP280;62039;50.000;9.064;2022-08-18T14:34:33;99757.44;;;28.49
73734;BMP280;62039;50.000;9.064;2022-08-18T14:37:01;99755.81;;;28.48
73734;BMP280;62039;50.000;9.064;2022-08-18T14:39:27;99750.75;;;28.47
73734;BMP280;62039;50.000;9.064;2022-08-18T14:41:54;99754.50;;;28.46
73734;BMP280;62039;50.000;9.064;2022-08-18T14:44:22;99750.53;;;28.43
73734;BMP280;62039;50.000;9.064;2022-08-18T14:46:55;99743.06;;;28.40
73734;BMP280;62039;50.000;9.064;2022-08-18T14:49:25;99748.22;;;28.37